createdAt,value
2022-11-05T00:01:25.003Z,26.37
2022-11-05T00:04:11.220Z,28.53
2022-11-05T00:06:59.809Z,24.87
2022-11-05T00:09:30.404Z,25.07
2022-11-05T00:12:30.049Z,31.43
2022-11-05T00:15:17.481Z,25.70
2022-11-05T00:17:46.589Z,23.10
2022-11-05T00:20:14.393Z,28.80
2022-11-05T00:23:00.606Z,23.70
2022-11-05T00:25:30.124Z,28.90
2022-11-05T00:28:04.065Z,28.60
2022-11-05T00:30:31.986Z,26.57
2022-11-05T00:33:03.670Z,26.47
2022-11-05T00:35:31.424Z,28.17
2022-11-05T00:37:58.977Z,30.30
2022-11-05T00:40:26.616Z,27.80
2022-11-05T00:43:12.998Z,33.13
2022-11-05T00:45:41.229Z,28.63
2022-11-05T00:48:27.440Z,32.43
2022-11-05T00:50:55.265Z,24.00
2022-11-05T00:53:23.065Z,23.43
2022-11-05T00:55:50.696Z,26.13
2022-11-05T00:58:23.864Z,27.90
2022-11-05T01:00:59.826Z,28.53
2022-11-05T01:03:39.233Z,27.53
2022-11-05T01:06:14.692Z,24.63
2022-11-05T01:08:46.707Z,24.27
2022-11-05T01:11:35.444Z,25.20
2022-11-05T01:14:13.506Z,29.97
2022-11-05T01:16:42.326Z,28.77
2022-11-05T01:19:19.241Z,41.10
2022-11-05T01:21:47.551Z,38.23
2022-11-05T01:24:15.075Z,36.10
2022-11-05T01:26:42.783Z,35.40
2022-11-05T01:29:11.936Z,34.40
2022-11-05T01:31:39.726Z,37.83
2022-11-05T01:34:07.315Z,43.73
2022-11-05T01:36:37.870Z,46.73
2022-11-05T01:39:18.727Z,49.20
2022-11-05T01:41:50.381Z,51.33
2022-11-05T01:45:29.480Z,42.90
2022-11-05T01:48:50.317Z,47.57
2022-11-05T01:51:27.655Z,45.90
2022-11-05T01:54:08.942Z,55.90
2022-11-05T01:56:54.508Z,52.27
2022-11-05T01:59:49.678Z,59.97
2022-11-05T02:02:19.330Z,48.93
2022-11-05T02:05:01.125Z,54.97
2022-11-05T02:07:31.112Z,46.87
2022-11-05T02:10:18.121Z,51.70
2022-11-05T02:12:53.821Z,43.93
2022-11-05T02:16:32.899Z,32.70
2022-11-05T02:19:58.390Z,42.50
2022-11-05T02:23:10.966Z,32.03
2022-11-05T02:26:50.172Z,34.67
2022-11-05T02:30:06.958Z,34.30
2022-11-05T02:33:06.691Z,33.83
2022-11-05T02:36:02.341Z,30.07
2022-11-05T02:39:08.034Z,34.93
2022-11-05T02:42:21.666Z,39.30
2022-11-05T02:46:12.759Z,37.73
2022-11-05T02:49:47.962Z,32.10
2022-11-05T02:53:01.853Z,25.93
2022-11-05T02:55:49.699Z,26.17
2022-11-05T02:58:17.582Z,25.93
2022-11-05T03:00:56.038Z,30.77
2022-11-05T03:03:43.117Z,35.10
2022-11-05T03:06:51.672Z,29.53
2022-11-05T03:10:33.357Z,27.33
2022-11-05T03:13:48.340Z,28.07
2022-11-05T03:16:39.139Z,25.20
2022-11-05T03:19:31.878Z,25.00
2022-11-05T03:22:32.668Z,35.80
2022-11-05T03:25:14.344Z,22.77
2022-11-05T03:27:54.423Z,28.67
2022-11-05T03:30:22.862Z,29.83
2022-11-05T03:33:05.906Z,30.53
2022-11-05T03:35:47.245Z,32.53
2022-11-05T03:38:28.939Z,28.33
2022-11-05T03:41:08.753Z,27.60
2022-11-05T03:43:47.081Z,28.90
2022-11-05T03:46:48.108Z,28.90
2022-11-05T03:49:33.056Z,24.33
2022-11-05T03:52:17.497Z,30.00
2022-11-05T03:54:47.179Z,28.70
2022-11-05T03:57:35.607Z,26.13
2022-11-05T04:00:10.972Z,32.57
2022-11-05T04:02:42.736Z,49.20
2022-11-05T04:05:12.037Z,38.73
2022-11-05T04:07:58.466Z,36.13
2022-11-05T04:11:05.193Z,39.73
2022-11-05T04:13:34.199Z,31.27
2022-11-05T04:16:19.910Z,31.83
2022-11-05T04:18:47.723Z,35.93
2022-11-05T04:21:34.699Z,35.53
2022-11-05T04:24:09.665Z,34.87
2022-11-05T04:26:44.326Z,41.50
2022-11-05T04:29:30.935Z,37.67
2022-11-05T04:31:58.762Z,37.87
2022-11-05T04:34:26.508Z,29.43
2022-11-05T04:36:54.112Z,39.03
2022-11-05T04:39:22.834Z,42.00
2022-11-05T04:41:50.541Z,43.40
2022-11-05T04:44:18.251Z,41.33
2022-11-05T04:46:46.172Z,33.33
2022-11-05T04:49:13.862Z,38.30
2022-11-05T04:51:41.445Z,34.90
2022-11-05T04:54:08.970Z,40.87
2022-11-05T04:56:36.638Z,44.40
2022-11-05T04:59:04.701Z,33.83
2022-11-05T05:01:32.489Z,40.97
2022-11-05T05:04:00.135Z,34.77
2022-11-05T05:06:27.964Z,34.23
2022-11-05T05:08:55.495Z,30.47
2022-11-05T05:11:23.601Z,35.27
2022-11-05T05:13:51.399Z,38.90
2022-11-05T05:16:28.124Z,36.80
2022-11-05T05:18:56.419Z,36.70
2022-11-05T05:21:40.505Z,32.67
2022-11-05T05:24:19.111Z,32.83
2022-11-05T05:26:51.648Z,37.77
2022-11-05T05:29:19.560Z,33.17
2022-11-05T05:31:47.135Z,35.50
2022-11-05T05:34:15.655Z,33.03
2022-11-05T05:36:43.322Z,33.60
2022-11-05T05:39:11.318Z,35.97
2022-11-05T05:41:39.070Z,43.20
2022-11-05T05:44:07.143Z,39.77
2022-11-05T05:46:35.206Z,40.83
2022-11-05T05:49:05.508Z,40.50
2022-11-05T05:51:37.318Z,44.83
2022-11-05T05:54:05.382Z,43.27
2022-11-05T05:56:32.922Z,49.27
2022-11-05T05:59:00.552Z,39.00
2022-11-05T06:01:28.280Z,39.00
2022-11-05T06:03:56.031Z,46.73
2022-11-05T06:06:23.596Z,43.20
2022-11-05T06:08:51.210Z,45.10
2022-11-05T06:11:19.092Z,42.23
2022-11-05T06:13:46.772Z,42.20
2022-11-05T06:16:14.664Z,40.20
2022-11-05T06:18:42.792Z,47.17
2022-11-05T06:21:16.699Z,41.37
2022-11-05T06:23:48.441Z,43.80
2022-11-05T06:26:19.204Z,46.03
2022-11-05T06:28:47.472Z,49.20
2022-11-05T06:31:16.007Z,46.57
2022-11-05T06:33:43.562Z,48.57
2022-11-05T06:36:18.503Z,46.70
2022-11-05T06:38:46.985Z,42.50
2022-11-05T06:41:15.129Z,42.73
2022-11-05T06:43:43.068Z,46.70
2022-11-05T06:46:12.392Z,49.60
2022-11-05T06:48:40.322Z,46.03
2022-11-05T06:51:09.668Z,49.40
2022-11-05T06:53:37.405Z,51.87
2022-11-05T06:56:08.068Z,47.00
2022-11-05T06:58:36.240Z,45.90
2022-11-05T07:01:10.060Z,56.13
2022-11-05T07:03:39.433Z,50.20
2022-11-05T07:06:08.696Z,50.67
2022-11-05T07:08:38.528Z,62.30
2022-11-05T07:11:06.803Z,61.27
2022-11-05T07:13:34.600Z,65.73
2022-11-05T07:16:08.624Z,67.27
2022-11-05T07:18:37.109Z,62.40
2022-11-05T07:21:05.198Z,66.37
2022-11-05T07:23:32.831Z,78.73
2022-11-05T07:26:00.628Z,79.80
2022-11-05T07:28:28.331Z,75.47
2022-11-05T07:30:59.227Z,81.13
2022-11-05T07:33:26.850Z,95.07
2022-11-05T07:35:58.229Z,83.83
2022-11-05T07:38:26.778Z,81.37
2022-11-05T07:40:54.685Z,79.67
2022-11-05T07:43:22.233Z,80.67
2022-11-05T07:45:49.850Z,77.63
2022-11-05T07:48:17.490Z,79.20
2022-11-05T07:50:45.104Z,79.63
2022-11-05T07:53:15.183Z,84.63
2022-11-05T07:55:46.055Z,90.10
2022-11-05T07:58:14.531Z,81.83
2022-11-05T08:00:44.059Z,106.37
2022-11-05T08:03:28.240Z,92.90
2022-11-05T08:05:58.811Z,94.67
2022-11-05T08:08:26.801Z,86.97
2022-11-05T08:10:54.396Z,65.63
2022-11-05T08:13:21.979Z,64.13
2022-11-05T08:15:49.498Z,50.27
2022-11-05T08:18:18.867Z,45.67
2022-11-05T08:20:48.142Z,35.70
2022-11-05T08:23:16.337Z,33.37
2022-11-05T08:25:44.122Z,32.97
2022-11-05T08:28:13.931Z,30.67
2022-11-05T08:30:43.612Z,29.27
2022-11-05T08:33:15.036Z,29.10
2022-11-05T08:35:43.232Z,25.13
2022-11-05T08:38:15.283Z,31.77
2022-11-05T08:40:53.446Z,26.90
2022-11-05T08:43:21.722Z,31.07
2022-11-05T08:45:50.052Z,25.33
2022-11-05T08:48:19.720Z,26.90
2022-11-05T08:50:49.804Z,25.33
2022-11-05T08:53:17.786Z,24.07
2022-11-05T08:55:47.740Z,19.80
2022-11-05T08:58:18.433Z,17.00
2022-11-05T09:00:50.380Z,18.97
2022-11-05T09:03:19.117Z,16.73
2022-11-05T09:05:47.383Z,19.57
2022-11-05T09:08:19.621Z,21.50
2022-11-05T09:10:49.920Z,19.90
2022-11-05T09:13:20.071Z,23.20
2022-11-05T09:15:51.869Z,23.57
2022-11-05T09:18:21.222Z,18.23
2022-11-05T09:20:49.043Z,19.80
2022-11-05T09:23:17.205Z,16.97
2022-11-05T09:25:45.440Z,24.10
2022-11-05T09:28:22.888Z,20.53
2022-11-05T09:30:53.037Z,22.97
2022-11-05T09:33:25.865Z,17.50
2022-11-05T09:35:54.208Z,16.50
2022-11-05T09:38:22.140Z,22.27
2022-11-05T09:41:04.146Z,16.03
2022-11-05T09:43:58.719Z,19.10
2022-11-05T09:46:58.566Z,17.90
2022-11-05T09:49:44.612Z,24.40
2022-11-05T09:52:29.910Z,17.57
2022-11-05T09:54:58.751Z,18.33
2022-11-05T09:57:59.517Z,14.83
2022-11-05T10:00:30.685Z,13.30
2022-11-05T10:03:14.520Z,14.23
2022-11-05T10:05:43.464Z,14.57
2022-11-05T10:09:12.477Z,12.40
2022-11-05T10:11:54.749Z,14.93
2022-11-05T10:14:39.261Z,15.13
2022-11-05T10:17:29.131Z,19.67
2022-11-05T10:20:37.418Z,13.07
2022-11-05T10:23:23.452Z,13.93
2022-11-05T10:26:14.675Z,14.20
2022-11-05T10:28:42.570Z,14.63
2022-11-05T10:31:21.141Z,11.40
2022-11-05T10:34:06.952Z,12.13
2022-11-05T10:36:38.648Z,18.93
2022-11-05T10:39:20.496Z,13.53
2022-11-05T10:42:46.904Z,10.63
2022-11-05T10:46:06.040Z,11.43
2022-11-05T10:49:14.859Z,11.30
2022-11-05T10:51:47.193Z,16.93
2022-11-05T10:54:24.904Z,11.13
2022-11-05T10:56:53.541Z,13.40
2022-11-05T10:59:30.142Z,11.30
2022-11-05T11:02:26.536Z,13.63
2022-11-05T11:04:58.431Z,13.43
2022-11-05T11:07:27.644Z,10.60
2022-11-05T11:09:55.557Z,8.90
2022-11-05T11:12:42.820Z,11.40
2022-11-05T11:15:20.348Z,7.97
2022-11-05T11:17:48.487Z,10.67
2022-11-05T11:20:43.494Z,11.50
2022-11-05T11:23:17.753Z,7.53
2022-11-05T11:26:03.838Z,11.83
2022-11-05T11:28:54.134Z,8.10
2022-11-05T11:31:29.893Z,8.70
2022-11-05T11:34:29.157Z,9.20
2022-11-05T11:37:31.134Z,11.13
2022-11-05T11:40:19.447Z,9.43
2022-11-05T11:43:01.195Z,8.83
2022-11-05T11:45:44.912Z,12.20
2022-11-05T11:48:27.808Z,10.27
2022-11-05T11:50:59.542Z,11.17
2022-11-05T11:53:36.093Z,7.73
2022-11-05T11:56:20.071Z,10.40
2022-11-05T11:58:55.656Z,9.63
2022-11-05T12:01:48.590Z,10.63
2022-11-05T12:05:11.932Z,11.80
2022-11-05T12:08:25.168Z,9.70
2022-11-05T12:11:25.608Z,9.07
2022-11-05T12:14:45.206Z,9.50
2022-11-05T12:17:55.382Z,10.83
2022-11-05T12:21:01.567Z,11.23
2022-11-05T12:24:18.824Z,13.03
2022-11-05T12:27:16.240Z,12.30
2022-11-05T12:30:14.390Z,11.10
2022-11-05T12:33:38.634Z,13.33
2022-11-05T12:37:23.902Z,8.80
2022-11-05T12:40:47.491Z,9.37
2022-11-05T12:43:54.527Z,11.43
2022-11-05T12:46:51.608Z,10.23
2022-11-05T12:50:02.700Z,9.50
2022-11-05T12:52:57.540Z,9.93
2022-11-05T12:55:37.759Z,14.20
2022-11-05T12:58:40.742Z,7.27
2022-11-05T13:01:39.982Z,10.20
2022-11-05T13:05:01.564Z,7.43
2022-11-05T13:07:40.104Z,7.27
2022-11-05T13:10:42.880Z,12.20
2022-11-05T13:13:49.691Z,9.00
2022-11-05T13:16:46.419Z,9.53
2022-11-05T13:19:28.522Z,10.27
2022-11-05T13:22:38.124Z,11.43
2022-11-05T13:25:33.684Z,12.33
2022-11-05T13:28:51.863Z,11.20
2022-11-05T13:31:40.227Z,7.40
2022-11-05T13:34:13.519Z,7.83
2022-11-05T13:37:18.626Z,9.03
2022-11-05T13:40:07.315Z,5.63
2022-11-05T13:43:36.384Z,13.03
2022-11-05T13:46:43.166Z,9.33
2022-11-05T13:50:14.439Z,11.50
2022-11-05T13:53:39.693Z,7.77
2022-11-05T13:57:26.413Z,8.07
2022-11-05T14:00:17.875Z,7.87
2022-11-05T14:03:15.611Z,7.73
2022-11-05T14:05:53.676Z,6.30
2022-11-05T14:08:29.987Z,7.97
2022-11-05T14:11:24.325Z,7.80
2022-11-05T14:14:16.003Z,9.17
2022-11-05T14:17:14.881Z,7.73
2022-11-05T14:20:04.633Z,9.20
2022-11-05T14:22:32.360Z,9.60
2022-11-05T14:25:24.375Z,13.20
2022-11-05T14:27:58.319Z,7.83
2022-11-05T14:30:49.018Z,7.17
2022-11-05T14:33:25.463Z,9.80
2022-11-05T14:36:30.655Z,6.57
2022-11-05T14:39:26.408Z,6.63
2022-11-05T14:42:15.147Z,7.90
2022-11-05T14:45:45.134Z,7.20
2022-11-05T14:48:48.003Z,6.50
2022-11-05T14:51:40.399Z,8.00
2022-11-05T14:54:54.254Z,6.50
2022-11-05T14:57:43.499Z,7.80
2022-11-05T15:00:30.331Z,7.47
2022-11-05T15:03:31.145Z,5.97
2022-11-05T15:06:28.667Z,5.13
2022-11-05T15:09:29.100Z,7.00
2022-11-05T15:11:56.688Z,5.67
2022-11-05T15:14:56.035Z,7.00
2022-11-05T15:17:34.712Z,5.37
2022-11-05T15:20:23.747Z,7.93
2022-11-05T15:23:03.995Z,7.13
2022-11-05T15:26:02.925Z,6.17
2022-11-05T15:28:49.810Z,8.73
2022-11-05T15:31:37.888Z,10.67
2022-11-05T15:34:36.797Z,9.37
2022-11-05T15:37:27.590Z,14.30
2022-11-05T15:39:56.331Z,8.50
2022-11-05T15:42:27.894Z,8.70
2022-11-05T15:45:00.025Z,6.93
2022-11-05T15:47:36.642Z,8.43
2022-11-05T15:50:16.356Z,7.30
2022-11-05T15:52:55.473Z,9.77
2022-11-05T15:55:27.136Z,7.20
2022-11-05T15:58:09.599Z,8.70
2022-11-05T16:00:37.677Z,7.40
2022-11-05T16:03:34.871Z,6.37
2022-11-05T16:06:03.400Z,5.77
2022-11-05T16:08:32.179Z,7.33
2022-11-05T16:11:02.060Z,7.23
2022-11-05T16:13:41.501Z,6.97
2022-11-05T16:16:15.008Z,6.37
2022-11-05T16:18:45.759Z,13.03
2022-11-05T16:21:20.136Z,10.45
2022-11-05T16:24:00.655Z,7.30
2022-11-05T16:27:01.867Z,6.90
2022-11-05T16:29:50.436Z,6.87
2022-11-05T16:32:31.772Z,7.40
2022-11-05T16:35:16.330Z,10.20
2022-11-05T16:37:49.138Z,11.27
2022-11-05T16:40:25.854Z,5.90
2022-11-05T16:42:54.774Z,8.77
2022-11-05T16:45:25.509Z,7.87
2022-11-05T16:47:53.272Z,7.23
2022-11-05T16:50:32.982Z,9.60
2022-11-05T16:53:00.629Z,7.57
2022-11-05T16:55:29.798Z,9.03
2022-11-05T16:57:59.285Z,8.50
2022-11-05T17:00:27.026Z,8.70
2022-11-05T17:02:55.590Z,13.03
2022-11-05T17:05:31.575Z,9.13
2022-11-05T17:08:01.254Z,12.23
2022-11-05T17:10:28.985Z,9.70
2022-11-05T17:12:57.274Z,9.70
2022-11-05T17:15:33.725Z,15.10
2022-11-05T17:18:04.385Z,11.50
2022-11-05T17:20:46.122Z,8.57
2022-11-05T17:23:21.158Z,11.87
2022-11-05T17:25:58.955Z,11.43
2022-11-05T17:28:27.350Z,12.97
2022-11-05T17:30:56.440Z,16.20
2022-11-05T17:33:24.367Z,9.50
2022-11-05T17:35:53.848Z,8.37
2022-11-05T17:38:25.291Z,7.33
2022-11-05T17:40:54.175Z,7.80
2022-11-05T17:43:21.988Z,9.00
2022-11-05T17:45:53.255Z,8.97
2022-11-05T17:48:21.845Z,8.37
2022-11-05T17:50:51.322Z,10.97
2022-11-05T17:53:19.966Z,6.00
2022-11-05T17:55:48.418Z,6.00
2022-11-05T17:58:16.446Z,9.90
2022-11-05T18:00:47.799Z,6.50
2022-11-05T18:03:15.840Z,6.90
2022-11-05T18:05:44.142Z,7.03
2022-11-05T18:08:12.731Z,6.27
2022-11-05T18:10:42.244Z,9.97
2022-11-05T18:13:11.272Z,13.30
2022-11-05T18:15:41.468Z,7.03
2022-11-05T18:18:09.830Z,5.90
2022-11-05T18:20:39.078Z,10.10
2022-11-05T18:23:06.749Z,9.43
2022-11-05T18:25:34.513Z,7.20
2022-11-05T18:28:03.349Z,7.90
2022-11-05T18:30:31.036Z,9.70
2022-11-05T18:32:58.595Z,9.37
2022-11-05T18:35:26.665Z,6.10
2022-11-05T18:37:54.393Z,9.20
2022-11-05T18:40:22.759Z,7.07
2022-11-05T18:42:50.595Z,6.57
2022-11-05T18:45:18.255Z,12.50
2022-11-05T18:47:45.873Z,6.67
2022-11-05T18:50:14.874Z,5.50
2022-11-05T18:52:42.505Z,6.00
2022-11-05T18:55:10.437Z,5.90
2022-11-05T18:57:38.267Z,16.83
2022-11-05T19:00:07.700Z,7.00
2022-11-05T19:02:35.428Z,5.30
2022-11-05T19:07:51.578Z,6.10
2022-11-05T19:10:19.399Z,5.43
2022-11-05T19:12:47.078Z,7.73
2022-11-05T19:15:14.799Z,8.03
2022-11-05T19:17:42.714Z,6.70
2022-11-05T19:20:12.103Z,7.97
2022-11-05T19:22:39.758Z,9.93
2022-11-05T19:25:08.387Z,9.07
2022-11-05T19:27:38.695Z,6.03
2022-11-05T19:30:07.533Z,10.10
2022-11-05T19:32:35.209Z,10.80
2022-11-05T19:35:02.845Z,7.27
2022-11-05T19:37:30.396Z,6.30
2022-11-05T19:39:58.083Z,7.00
2022-11-05T19:42:26.969Z,7.43
2022-11-05T19:44:54.591Z,6.33
2022-11-05T19:47:22.776Z,9.03
2022-11-05T19:49:50.377Z,7.20
2022-11-05T19:52:18.133Z,9.63
2022-11-05T19:54:46.143Z,7.77
2022-11-05T19:57:13.935Z,6.40
2022-11-05T19:59:41.528Z,9.83
2022-11-05T20:02:16.022Z,11.87
2022-11-05T20:04:44.430Z,7.03
2022-11-05T20:07:12.012Z,10.50
2022-11-05T20:09:40.405Z,7.33
2022-11-05T20:12:08.170Z,10.73
2022-11-05T20:14:35.962Z,12.47
2022-11-05T20:17:03.846Z,9.97
2022-11-05T20:19:31.579Z,7.20
2022-11-05T20:22:02.398Z,7.87
2022-11-05T20:24:30.654Z,10.93
2022-11-05T20:26:58.888Z,14.43
2022-11-05T20:29:33.861Z,8.60
2022-11-05T20:32:04.903Z,10.70
2022-11-05T20:34:35.034Z,10.37
2022-11-05T20:37:02.882Z,6.47
2022-11-05T20:39:31.038Z,8.10
2022-11-05T20:42:00.562Z,9.20
2022-11-05T20:44:28.577Z,8.77
2022-11-05T20:46:56.932Z,8.83
2022-11-05T20:49:25.882Z,11.47
2022-11-05T20:51:54.552Z,8.60
2022-11-05T20:54:22.559Z,13.93
2022-11-05T20:56:50.430Z,11.47
2022-11-05T20:59:18.207Z,6.50
2022-11-05T21:01:46.034Z,8.10
2022-11-05T21:04:13.771Z,7.50
2022-11-05T21:06:41.376Z,7.47
2022-11-05T21:09:09.057Z,7.20
2022-11-05T21:11:56.540Z,12.50
2022-11-05T21:14:24.206Z,11.10
2022-11-05T21:16:51.910Z,9.43
2022-11-05T21:19:19.895Z,8.33
2022-11-05T21:21:47.902Z,6.60
2022-11-05T21:24:15.878Z,14.80
2022-11-05T21:26:43.449Z,7.90
2022-11-05T21:29:11.218Z,8.97
2022-11-05T21:31:39.905Z,7.60
2022-11-05T21:34:07.866Z,9.97
2022-11-05T21:36:35.731Z,8.77
2022-11-05T21:39:07.709Z,8.40
2022-11-05T21:41:38.954Z,8.63
2022-11-05T21:44:06.825Z,8.43
2022-11-05T21:46:34.508Z,7.93
2022-11-05T21:49:02.432Z,9.30
2022-11-05T21:51:48.421Z,8.97
2022-11-05T21:54:34.522Z,10.67
2022-11-05T21:57:21.321Z,17.43
2022-11-05T21:59:49.237Z,11.27
2022-11-05T22:02:24.011Z,8.50
2022-11-05T22:04:56.452Z,9.73
2022-11-05T22:07:34.662Z,10.73
2022-11-05T22:10:07.567Z,11.97
2022-11-05T22:12:37.123Z,10.40
2022-11-05T22:15:06.164Z,13.27
2022-11-05T22:17:33.871Z,10.77
2022-11-05T22:20:01.430Z,14.33
2022-11-05T22:22:29.722Z,9.87
2022-11-05T22:24:57.330Z,10.97
2022-11-05T22:27:24.912Z,13.03
2022-11-05T22:29:52.567Z,10.53
2022-11-05T22:32:20.181Z,14.10
2022-11-05T22:34:49.572Z,10.30
2022-11-05T22:37:17.437Z,8.77
2022-11-05T22:39:45.139Z,10.70
2022-11-05T22:42:12.851Z,10.27
2022-11-05T22:44:40.575Z,10.50
2022-11-05T22:47:08.297Z,11.50
2022-11-05T22:49:36.015Z,12.20
2022-11-05T22:52:03.873Z,15.03
2022-11-05T22:54:37.890Z,9.93
2022-11-05T22:57:06.949Z,10.30
2022-11-05T22:59:34.528Z,12.43
2022-11-05T23:02:08.251Z,7.03
2022-11-05T23:04:38.522Z,7.30
2022-11-05T23:07:27.805Z,10.03
2022-11-05T23:10:14.980Z,10.50
2022-11-05T23:12:44.479Z,9.80
2022-11-05T23:15:33.359Z,11.27
2022-11-05T23:18:19.801Z,11.77
2022-11-05T23:21:11.635Z,13.07
2022-11-05T23:23:57.754Z,8.67
2022-11-05T23:26:44.002Z,7.37
2022-11-05T23:29:11.588Z,12.07
2022-11-05T23:31:57.426Z,14.60
2022-11-05T23:34:25.231Z,10.03
2022-11-05T23:37:11.223Z,18.23
2022-11-05T23:39:42.581Z,11.80
2022-11-05T23:42:29.989Z,15.80
2022-11-05T23:45:16.701Z,11.23
2022-11-05T23:48:03.095Z,6.90
2022-11-05T23:50:37.118Z,10.90
2022-11-05T23:53:08.810Z,8.77
2022-11-05T23:55:37.182Z,9.30
2022-11-05T23:58:06.986Z,7.87
